Portada
METAR-TAF:

METAR-TAF

Aeroports :

Alice Springs, Austràlia

latitud: 23-48S, longitud: 133-53E, altitud: 545 m

Observació

L'informe es va fer fa 27 minuts, a les 07:30 UTC
Vent 11 kt del Est
Temperatura 38°C
Humitat 14%
Pressió 1008 hPa
Visibilitat 10 km o més

METAR: YBAS 180730Z AUTO 08011KT 9999 // NCD 38/06 Q1008 RF00.0/000.0

Hora: 17:27 (07:57 UTC)

Pronòstic

L'informe es va fer fa 2 hores i 53 minuts, a les 05:04 UTC
Pronòstic vàlid del 18 a les 06 UTC al 19 a les 06 UTC
Vent 12 kt del Est/Nord-Est
Visibilitat 10 km o més
sense núvols per sota de 1500 mi sense presència de cumulonimbus.
A partir de les 18 a les 1500 UTC
Vent 6 kt del Nord
Visibilitat 10 km o més
sense núvols per sota de 1500 mi sense presència de cumulonimbus.
A partir de les 19 a les 0200 UTC
Vent 12 kt del Est
Visibilitat 10 km o més
sense núvols per sota de 1500 mi sense presència de cumulonimbus.

TAF: YBAS 180504Z 1806/1906 07012KT CAVOK FM181500 35006KT CAVOK FM190200 09012KT CAVOK

Observacions i pronòstics meteorològics de més de 4000 aeroports (METAR i TAF).

Les estacions disponibles són els punts grocs i vermells al mapa.

Posi el ratolí al punt desitjat per veure el nom de l'estació.

Feu clic per veure les observacions i els pronòstics meteorològics.

Per canviar el mapa: feu clic els botons verds amb una creu de color negre per apropar; al botó verd amb un guió per allunyar la imatge; o en les fletxes verdes per a mapes adjacents.


METAR-TAF: